Hallowell, Maine
Current Conditions -  °F | °C
As of 5:53 AM on Friday 31 Oct 2014 (Local Time) from KAUG Reporting Station
Few Clouds Few Clouds  
Wind Chill: 32°   Ceiling: Unl
Heat Index: 36°   Visibility: 10mi
Dew Point: 28°   Wind: 5mph
Humidity: 73%   Direction: 310°NW
Pressure: 30.03"   Gusts: NA
Location:  44.29°N, 69.79°W
Report Text: KAUG 310953Z AUTO 31004KT 10SM FEW055 02/M02 A3003 RMK AO2 SLP173 T00221022
Loading
Personal Weather Stations






























Interactive Weather Map
Tropical Storm Tracking
New forecast layout! Learn more

10-Day Weather Forecast

Advertisements
Track Severe Weather on mobile